Time;durP1;ratioP1;P1;durP2;ratioP2;P2;SDS_P1;SDS_P2;PMS_P1;PMS_P2;Temp;Humidity;BMP_temperature;BMP_pressure;BME280_temperature;BME280_humidity;BME280_pressure;Samples;Min_cycle;Max_cycle;Signal;HPM_P1;HPM_P2
2022/06/08 00:02:22;;;;;;;11.90;5.92;;;;;;;15.70;60.44;100099.91;1777531;79;20933;-73
2022/06/08 00:04:49;;;;;;;7.50;5.22;;;;;;;15.67;60.47;100097.58;1803673;79;21482;-74
2022/06/08 00:07:15;;;;;;;10.75;5.80;;;;;;;15.65;60.56;100098.25;1807366;79;21537;-74
2022/06/08 00:09:43;;;;;;;7.65;5.70;;;;;;;15.64;60.63;100102.41;1803589;79;21665;-74
2022/06/08 00:12:12;;;;;;;8.80;6.12;;;;;;;15.63;60.70;100099.38;1795001;78;20998;-74
2022/06/08 00:14:39;;;;;;;7.75;5.37;;;;;;;15.62;60.84;100101.71;1789781;78;21080;-73
2022/06/08 00:17:07;;;;;;;7.62;5.25;;;;;;;15.58;60.91;100094.52;1815269;79;20983;-74
2022/06/08 00:19:33;;;;;;;7.50;5.25;;;;;;;15.58;60.83;100091.86;1794986;78;20968;-73
2022/06/08 00:22:01;;;;;;;8.78;5.10;;;;;;;15.55;60.79;100089.53;1814054;77;21385;-73
2022/06/08 00:24:28;;;;;;;6.05;5.45;;;;;;;15.52;60.84;100087.66;1810404;79;21848;-74
2022/06/08 00:26:56;;;;;;;7.15;5.20;;;;;;;15.49;60.89;100092.82;1802675;79;21038;-73
2022/06/08 00:29:23;;;;;;;6.03;4.25;;;;;;;15.45;60.92;100082.17;1803202;79;20936;-74
2022/06/08 00:31:52;;;;;;;6.58;4.30;;;;;;;15.40;61.01;100083.97;1800487;77;20983;-73
2022/06/08 00:34:18;;;;;;;5.75;4.62;;;;;;;15.37;61.10;100084.30;1764840;79;21083;-74
2022/06/08 00:36:45;;;;;;;8.45;5.20;;;;;;;15.31;61.20;100087.58;1800242;77;21876;-73
2022/06/08 00:39:12;;;;;;;6.00;4.42;;;;;;;15.25;61.29;100077.59;1799418;79;20979;-73
2022/06/08 00:41:50;;;;;;;6.55;4.33;;;;;;;15.22;61.40;100083.71;1814258;77;21003;-73
2022/06/08 00:44:25;;;;;;;5.00;4.08;;;;;;;15.21;61.63;100080.22;1781630;80;21075;-74
2022/06/08 00:46:52;;;;;;;5.83;4.53;;;;;;;15.21;61.87;100085.54;1828048;77;21036;-73
2022/06/08 00:49:35;;;;;;;4.72;4.00;;;;;;;15.21;61.82;100077.56;1790283;78;21040;-74
2022/06/08 00:52:02;;;;;;;5.90;4.25;;;;;;;15.21;61.83;100076.23;1812339;77;21112;-74
2022/06/08 00:54:39;;;;;;;5.78;4.20;;;;;;;15.17;61.87;100074.89;1803268;78;20959;-74
2022/06/08 00:57:15;;;;;;;5.45;4.00;;;;;;;15.14;61.93;100079.17;1817457;78;21946;-74
2022/06/08 00:59:50;;;;;;;5.72;4.30;;;;;;;15.10;61.93;100069.86;1816558;78;20948;-74
2022/06/08 01:02:18;;;;;;;6.53;4.37;;;;;;;15.10;62.05;100075.17;1806375;78;21842;-74
2022/06/08 01:04:45;;;;;;;7.33;4.58;;;;;;;15.07;62.11;100064.86;1807906;78;21085;-75
2022/06/08 01:07:19;;;;;;;5.80;3.60;;;;;;;15.06;62.22;100069.84;1801441;78;21026;-74
2022/06/08 01:09:47;;;;;;;5.25;4.05;;;;;;;15.05;62.31;100068.16;1782345;78;21039;-74
2022/06/08 01:12:18;;;;;;;4.65;3.90;;;;;;;15.02;62.40;100063.98;1817651;78;21012;-74
2022/06/08 01:14:48;;;;;;;4.20;3.33;;;;;;;15.00;62.46;100066.48;1819664;78;22593;-73
2022/06/08 01:17:18;;;;;;;13.28;3.62;;;;;;;14.99;62.60;100068.80;1823296;78;21000;-74
2022/06/08 01:19:49;;;;;;;8.95;3.60;;;;;;;14.98;62.76;100069.30;1798976;78;21060;-73
2022/06/08 01:22:19;;;;;;;5.92;3.52;;;;;;;14.97;62.80;100068.96;1794633;80;20948;-74
2022/06/08 01:24:51;;;;;;;6.83;3.92;;;;;;;14.96;62.78;100072.62;1800163;79;20897;-73
2022/06/08 01:27:48;;;;;;;7.55;3.62;;;;;;;14.93;62.74;100071.58;1824482;78;22009;-72
2022/06/08 01:30:30;;;;;;;7.08;3.60;;;;;;;14.90;62.75;100075.89;1805693;77;20987;-72
2022/06/08 01:33:36;;;;;;;6.03;3.70;;;;;;;14.84;62.79;100077.34;1784639;78;20996;-74
2022/06/08 01:36:25;;;;;;;7.03;3.55;;;;;;;14.81;62.87;100076.33;1820442;78;21418;-71
2022/06/08 01:39:40;;;;;;;4.42;3.55;;;;;;;14.79;63.03;100078.32;1813461;78;21024;-72
2022/06/08 01:42:18;;;;;;;5.92;3.75;;;;;;;14.79;63.11;100076.16;1808231;78;21866;-72
2022/06/08 01:45:30;;;;;;;5.17;3.65;;;;;;;14.78;63.17;100082.47;1785467;80;21483;-75
2022/06/08 01:48:28;;;;;;;4.70;3.55;;;;;;;14.76;63.17;100073.80;1776487;80;21103;-74
2022/06/08 01:51:20;;;;;;;4.53;3.50;;;;;;;14.74;63.16;100071.30;1798703;78;21355;-74
2022/06/08 01:54:23;;;;;;;5.60;3.75;;;;;;;14.73;63.41;100069.62;1777747;79;21450;-74
2022/06/08 01:57:11;;;;;;;5.22;3.25;;;;;;;14.72;63.62;100066.63;1778099;78;22478;-73
2022/06/08 02:00:03;;;;;;;6.25;3.37;;;;;;;14.71;63.67;100074.77;1755028;78;21076;-73
2022/06/08 02:02:48;;;;;;;6.62;3.27;;;;;;;14.68;63.75;100071.11;1796591;78;20971;-73
2022/06/08 02:06:01;;;;;;;5.67;3.67;;;;;;;14.67;63.86;100074.26;1801736;78;21125;-72
2022/06/08 02:08:57;;;;;;;4.12;3.33;;;;;;;14.65;63.98;100072.72;1761460;80;21063;-72
2022/06/08 02:11:35;;;;;;;5.42;3.58;;;;;;;14.63;64.21;100075.54;1758365;79;22290;-73
2022/06/08 02:14:17;;;;;;;4.45;3.90;;;;;;;14.64;64.77;100076.38;1798858;78;20987;-73
2022/06/08 02:16:53;;;;;;;5.05;4.10;;;;;;;14.68;65.48;100087.05;1830104;78;21068;-73
2022/06/08 02:19:43;;;;;;;4.40;4.00;;;;;;;14.74;66.09;100082.42;1817336;78;20993;-73
2022/06/08 02:22:30;;;;;;;4.92;4.00;;;;;;;14.79;66.45;100087.63;1823511;78;20934;-74
2022/06/08 02:25:14;;;;;;;5.97;4.30;;;;;;;14.81;66.60;100084.31;1817955;78;22500;-72
2022/06/08 02:28:03;;;;;;;7.55;3.85;;;;;;;14.84;66.73;100087.98;1783207;80;21008;-73
2022/06/08 02:30:35;;;;;;;5.30;4.25;;;;;;;14.86;67.05;100084.69;1758722;80;20953;-74
2022/06/08 02:35:48;;;;;;;7.47;4.17;;;;;;;14.94;67.99;100083.88;1720601;79;21000;-73
2022/06/08 02:38:17;;;;;;;5.58;3.80;;;;;;;14.99;68.27;100092.24;1784157;79;21834;-73
2022/06/08 02:40:48;;;;;;;8.00;4.33;;;;;;;15.02;68.37;100094.58;1778805;79;21445;-73
2022/06/08 02:43:35;;;;;;;4.72;4.20;;;;;;;15.04;68.58;100098.41;1768323;78;21179;-73
2022/06/08 02:46:31;;;;;;;7.53;3.95;;;;;;;15.05;68.75;100096.91;1816321;78;20935;-73
2022/06/08 02:49:05;;;;;;;5.90;4.05;;;;;;;15.08;69.04;100093.95;1799605;78;21524;-72
2022/06/08 02:51:33;;;;;;;7.20;4.53;;;;;;;15.11;68.99;100102.11;1815261;77;21982;-73
2022/06/08 02:54:06;;;;;;;9.35;4.78;;;;;;;15.16;68.46;100105.15;1815427;78;20927;-73
2022/06/08 02:57:05;;;;;;;5.87;4.92;;;;;;;15.19;67.95;100110.14;1793134;78;21073;-74
2022/06/08 02:59:56;;;;;;;6.25;5.65;;;;;;;15.23;67.62;100108.83;1820767;78;21522;-74
2022/06/08 03:02:30;;;;;;;10.48;6.62;;;;;;;15.29;67.36;100108.70;1822350;78;21006;-73
2022/06/08 03:05:08;;;;;;;10.45;7.62;;;;;;;15.33;67.08;100112.70;1750884;80;21936;-73
2022/06/08 03:07:44;;;;;;;8.58;7.67;;;;;;;15.39;66.78;100118.23;1812784;77;21052;-74
2022/06/08 03:10:13;;;;;;;11.38;8.20;;;;;;;15.43;66.29;100111.58;1792562;78;20936;-73
2022/06/08 03:12:50;;;;;;;10.30;8.38;;;;;;;15.47;65.91;100112.12;1805386;78;21299;-72
2022/06/08 03:15:17;;;;;;;12.95;8.30;;;;;;;15.54;65.67;100102.97;1817329;78;21002;-73
2022/06/08 03:17:49;;;;;;;10.85;7.58;;;;;;;15.62;65.64;100104.38;1810504;78;21917;-73
2022/06/08 03:20:14;;;;;;;13.48;8.03;;;;;;;15.65;65.59;100107.57;1795025;78;20990;-74
2022/06/08 03:22:42;;;;;;;14.90;7.80;;;;;;;15.67;65.65;100108.73;1818853;78;21453;-75
2022/06/08 03:25:11;;;;;;;8.60;7.30;;;;;;;15.71;65.69;100114.06;1803949;78;21029;-74
2022/06/08 03:27:39;;;;;;;9.80;7.50;;;;;;;15.77;65.78;100108.60;1802867;77;20955;-73
2022/06/08 03:30:09;;;;;;;9.35;7.90;;;;;;;15.85;65.68;100102.80;1815651;78;21908;-73
2022/06/08 03:32:38;;;;;;;10.10;7.55;;;;;;;15.94;65.69;100104.49;1822250;78;21034;-74
2022/06/08 03:35:08;;;;;;;11.73;7.50;;;;;;;16.03;65.63;100111.51;1802602;78;21104;-73
2022/06/08 03:37:35;;;;;;;9.58;7.55;;;;;;;16.10;65.72;100107.67;1802328;78;21121;-73
2022/06/08 03:40:04;;;;;;;12.00;6.75;;;;;;;16.18;65.73;100105.02;1821096;78;21070;-73
2022/06/08 03:42:30;;;;;;;9.20;7.28;;;;;;;16.29;65.77;100103.37;1800315;78;21661;-72
2022/06/08 03:44:57;;;;;;;8.33;7.50;;;;;;;16.42;65.65;100096.73;1798374;79;20947;-74
2022/06/08 03:47:28;;;;;;;7.92;6.85;;;;;;;16.53;65.55;100097.23;1788181;79;20983;-72
2022/06/08 03:49:58;;;;;;;8.93;7.42;;;;;;;16.66;65.63;100094.05;1804622;77;21369;-73
2022/06/08 03:52:27;;;;;;;10.82;7.03;;;;;;;16.80;65.54;100103.25;1799364;79;21022;-73
2022/06/08 03:54:58;;;;;;;12.15;7.37;;;;;;;16.93;65.64;100103.56;1828757;77;21871;-73
2022/06/08 03:57:29;;;;;;;12.82;7.53;;;;;;;17.07;65.78;100102.02;1810969;77;21044;-72
2022/06/08 04:00:00;;;;;;;11.33;7.08;;;;;;;17.20;66.22;100100.17;1837379;77;21017;-73
2022/06/08 04:02:27;;;;;;;11.15;6.87;;;;;;;17.33;66.77;100098.61;1844820;77;21425;-74
2022/06/08 04:04:56;;;;;;;9.18;6.62;;;;;;;17.48;67.29;100096.58;1799890;79;21041;-72
2022/06/08 04:11:23;;;;;;;9.20;5.83;;;;;;;17.78;67.80;100099.80;1749482;81;21058;-73
2022/06/08 04:13:51;;;;;;;9.15;6.45;;;;;;;18.02;67.58;100096.14;1802990;79;21414;-73
2022/06/08 04:16:20;;;;;;;8.33;6.33;;;;;;;18.17;67.54;100099.73;1801413;79;21015;-74
2022/06/08 04:18:48;;;;;;;7.05;5.70;;;;;;;18.35;67.63;100099.44;1807100;77;20987;-73
2022/06/08 04:21:15;;;;;;;10.13;5.97;;;;;;;18.52;67.37;100088.91;1806388;79;21770;-74
2022/06/08 04:23:45;;;;;;;6.45;4.90;;;;;;;18.68;67.05;100087.98;1798774;77;21038;-73
2022/06/08 04:26:27;;;;;;;7.78;4.85;;;;;;;18.83;66.63;100088.86;1798053;78;21125;-74
2022/06/08 04:28:55;;;;;;;6.58;4.45;;;;;;;19.03;66.39;100088.33;1795143;79;21030;-73
2022/06/08 04:31:23;;;;;;;6.30;4.50;;;;;;;19.23;65.84;100088.61;1764849;79;21054;-75
2022/06/08 04:33:53;;;;;;;5.05;3.67;;;;;;;19.38;65.16;100088.08;1799964;79;21823;-73
2022/06/08 04:36:21;;;;;;;9.90;4.30;;;;;;;19.56;63.96;100091.23;1802815;79;20960;-73
2022/06/08 04:38:50;;;;;;;7.17;4.45;;;;;;;19.75;63.25;100100.55;1804867;77;20996;-74
2022/06/08 04:41:17;;;;;;;5.47;4.10;;;;;;;19.97;62.40;100096.05;1806723;79;21043;-74
2022/06/08 04:43:45;;;;;;;5.60;3.50;;;;;;;20.23;60.83;100101.70;1797467;78;21039;-73
2022/06/08 04:46:17;;;;;;;6.17;3.60;;;;;;;20.47;59.34;100096.50;1800654;79;21932;-73
2022/06/08 04:48:46;;;;;;;6.78;4.10;;;;;;;20.64;58.49;100095.70;1808271;79;21036;-72
2022/06/08 04:51:15;;;;;;;5.35;3.50;;;;;;;20.80;57.64;100097.28;1798246;79;21078;-74
2022/06/08 04:53:44;;;;;;;6.42;3.58;;;;;;;20.94;56.78;100100.88;1762240;79;21449;-74
2022/06/08 04:56:11;;;;;;;4.75;3.60;;;;;;;21.07;56.49;100104.50;1791658;79;20956;-74
2022/06/08 04:58:41;;;;;;;5.22;2.92;;;;;;;21.19;56.17;100103.44;1777145;80;20928;-73
2022/06/08 05:01:08;;;;;;;6.65;2.98;;;;;;;21.29;55.63;100108.48;1800657;79;20947;-73
2022/06/08 05:03:34;;;;;;;5.67;2.40;;;;;;;21.40;54.97;100110.61;1799142;79;20963;-73
2022/06/08 05:06:02;;;;;;;5.80;2.60;;;;;;;21.52;53.97;100109.52;1805188;79;21000;-73
2022/06/08 05:08:30;;;;;;;4.60;2.45;;;;;;;21.61;53.47;100105.13;1797025;79;20971;-73
2022/06/08 05:10:57;;;;;;;4.45;2.47;;;;;;;21.74;53.37;100108.41;1804815;79;21853;-74
2022/06/08 05:13:27;;;;;;;3.83;2.22;;;;;;;21.85;52.59;100111.03;1800361;79;20955;-74
2022/06/08 05:15:55;;;;;;;3.30;2.45;;;;;;;21.98;51.60;100109.72;1797198;79;21023;-73
2022/06/08 05:18:23;;;;;;;4.83;2.87;;;;;;;;;;1802477;79;20980;-73
2022/06/08 05:20:53;;;;;;;3.58;2.30;;;;;;;22.23;51.46;100104.65;1780820;80;21071;-73
2022/06/08 05:23:25;;;;;;;4.33;2.00;;;;;;;22.35;50.48;100103.00;1786747;79;24279;-74
2022/06/08 05:25:53;;;;;;;4.47;1.60;;;;;;;22.48;49.70;100103.01;1791575;79;20991;-74
2022/06/08 05:28:23;;;;;;;3.02;1.70;;;;;;;22.60;47.49;100105.94;1792276;79;21412;-74
2022/06/08 05:30:54;;;;;;;4.42;2.10;;;;;;;22.71;46.89;100107.19;1791148;79;22001;-74
2022/06/08 05:33:24;;;;;;;8.93;2.47;;;;;;;22.81;47.36;100104.38;1767100;79;21007;-74
2022/06/08 05:35:52;;;;;;;6.97;2.12;;;;;;;22.91;47.96;100105.86;1760640;79;22683;-73
2022/06/08 05:38:19;;;;;;;6.05;2.20;;;;;;;23.00;48.02;100108.64;1795107;79;21035;-73
2022/06/08 05:40:47;;;;;;;2.95;2.17;;;;;;;23.08;47.72;100101.18;1789235;79;21497;-73
2022/06/08 05:43:14;;;;;;;5.42;2.35;;;;;;;23.19;47.43;100107.78;1803775;79;21047;-74
2022/06/08 05:45:43;;;;;;;11.80;2.47;;;;;;;23.29;47.36;100104.66;1793921;79;20988;-76
2022/06/08 05:48:10;;;;;;;7.95;2.08;;;;;;;23.38;46.80;100108.78;1785127;79;21932;-74
2022/06/08 05:50:40;;;;;;;16.40;2.77;;;;;;;23.48;46.10;100101.08;1786921;79;21371;-75
2022/06/08 05:53:09;;;;;;;6.25;2.02;;;;;;;23.59;44.88;100103.13;1758671;79;21070;-75
2022/06/08 05:55:35;;;;;;;5.67;1.57;;;;;;;23.69;43.47;100102.16;1796912;79;21074;-78
2022/06/08 05:58:02;;;;;;;6.05;1.70;;;;;;;23.80;42.39;100101.18;1793721;79;21090;-73
2022/06/08 06:00:34;;;;;;;5.30;1.90;;;;;;;23.86;42.75;100096.29;1795104;79;21905;-76
2022/06/08 06:03:01;;;;;;;9.80;2.00;;;;;;;23.94;42.52;100106.84;1788743;79;21075;-73
2022/06/08 06:05:31;;;;;;;5.90;2.20;;;;;;;24.02;42.26;100099.81;1795861;79;21026;-75
2022/06/08 06:08:00;;;;;;;6.85;2.00;;;;;;;24.11;42.41;100103.91;1795794;79;21003;-70
2022/06/08 06:10:30;;;;;;;3.85;2.08;;;;;;;24.21;42.45;100100.73;1788845;79;21034;-74
2022/06/08 06:12:57;;;;;;;3.95;1.80;;;;;;;24.33;41.92;100095.00;1793122;79;21977;-74
2022/06/08 06:15:27;;;;;;;3.77;1.52;;;;;;;24.41;41.57;100096.06;1830063;77;20974;-73
2022/06/08 06:17:55;;;;;;;3.67;1.85;;;;;;;24.48;41.45;100096.84;1837229;77;21027;-73
2022/06/08 06:20:22;;;;;;;2.70;1.67;;;;;;;24.58;41.43;100093.66;1777050;80;21070;-74
2022/06/08 06:22:54;;;;;;;6.20;2.33;;;;;;;24.70;41.73;100098.64;1779117;80;20932;-75
2022/06/08 06:25:22;;;;;;;4.50;2.17;;;;;;;24.82;41.11;100094.72;1778140;77;22293;-75
2022/06/08 06:28:08;;;;;;;6.35;2.20;;;;;;;24.88;40.80;100088.41;1789732;79;20976;-75
2022/06/08 06:30:43;;;;;;;7.08;2.33;;;;;;;24.96;40.95;100088.13;1790629;79;21461;-73
2022/06/08 06:33:20;;;;;;;14.98;2.77;;;;;;;25.06;41.40;100096.58;1787536;79;21012;-76
2022/06/08 06:35:48;;;;;;;8.58;2.37;;;;;;;25.19;40.84;100094.78;1780895;79;21034;-75
2022/06/08 06:38:15;;;;;;;5.12;2.30;;;;;;;25.27;40.45;100087.73;1795312;79;22244;-75
2022/06/08 06:40:42;;;;;;;5.22;1.80;;;;;;;25.32;39.30;100086.02;1773127;79;21031;-75
2022/06/08 06:43:10;;;;;;;4.78;2.27;;;;;;;25.38;38.82;100086.48;1787468;79;20956;-73
2022/06/08 06:45:40;;;;;;;8.58;2.72;;;;;;;25.44;39.38;100082.03;1785497;79;21047;-74
2022/06/08 06:48:09;;;;;;;7.15;2.83;;;;;;;25.52;42.84;100077.68;1798917;79;21045;-74
2022/06/08 06:50:37;;;;;;;15.88;3.12;;;;;;;25.62;43.17;100086.08;1794596;79;21858;-74
2022/06/08 06:53:04;;;;;;;6.83;2.95;;;;;;;25.73;43.06;100083.70;1774501;79;21039;-77
2022/06/08 06:55:33;;;;;;;7.17;1.98;;;;;;;25.81;42.11;100081.50;1795203;79;21028;-74
2022/06/08 06:58:01;;;;;;;8.15;2.30;;;;;;;25.89;39.58;100081.72;1784059;79;20967;-75
2022/06/08 07:00:33;;;;;;;4.58;2.42;;;;;;;25.96;39.69;100082.43;1797242;79;20944;-76
2022/06/08 07:03:04;;;;;;;6.47;2.50;;;;;;;25.98;40.29;100081.70;1783558;79;21875;-78
2022/06/08 07:05:33;;;;;;;6.22;2.92;;;;;;;26.05;40.54;100086.47;1797325;79;21406;-74
2022/06/08 07:08:03;;;;;;;7.37;2.80;;;;;;;26.14;41.27;100081.02;1795929;79;21067;-74
2022/06/08 07:10:29;;;;;;;5.00;2.83;;;;;;;26.20;40.69;100074.70;1785691;79;21066;-73
2022/06/08 07:12:56;;;;;;;5.62;2.70;;;;;;;26.31;41.46;100075.78;1801613;79;21134;-75
2022/06/08 07:15:24;;;;;;;11.18;2.50;;;;;;;26.45;40.42;100073.74;1776808;79;21931;-75
2022/06/08 07:17:52;;;;;;;7.87;2.58;;;;;;;26.59;39.63;100070.27;1758057;79;20944;-76
2022/06/08 07:20:20;;;;;;;4.47;2.25;;;;;;;26.73;39.99;100068.47;1772821;80;20988;-75
2022/06/08 07:22:47;;;;;;;6.62;2.22;;;;;;;26.86;37.99;100059.27;1792179;79;21052;-77
2022/06/08 07:25:14;;;;;;;4.05;2.10;;;;;;;26.87;37.70;100061.45;1782338;79;20964;-75
2022/06/08 07:27:42;;;;;;;3.33;2.17;;;;;;;26.85;36.86;100058.16;1791718;79;21759;-78
2022/06/08 07:30:11;;;;;;;3.92;1.90;;;;;;;26.87;37.21;100064.98;1794464;79;20976;-76
2022/06/08 07:32:38;;;;;;;5.30;1.98;;;;;;;26.95;38.21;100058.39;1784129;79;20987;-76
2022/06/08 07:35:05;;;;;;;8.00;2.17;;;;;;;26.97;37.37;100058.97;1783351;79;21058;-75
2022/06/08 07:37:32;;;;;;;6.22;2.00;;;;;;;26.91;35.47;100060.73;1800545;79;21144;-76
2022/06/08 07:39:59;;;;;;;4.15;1.85;;;;;;;26.81;35.83;100057.25;1785468;79;21871;-75
2022/06/08 07:42:26;;;;;;;7.62;2.33;;;;;;;26.85;36.97;100060.34;1777740;79;21028;-76
2022/06/08 07:44:53;;;;;;;7.15;2.10;;;;;;;27.02;36.78;100056.36;1787273;79;20972;-76
2022/06/08 07:47:20;;;;;;;3.77;1.95;;;;;;;27.15;37.32;100057.52;1769581;81;20976;-75
2022/06/08 07:49:51;;;;;;;3.02;2.12;;;;;;;27.30;37.35;100053.75;1769694;79;20960;-77
2022/06/08 07:52:20;;;;;;;7.30;1.92;;;;;;;27.46;37.21;100051.38;1795808;79;21842;-76
2022/06/08 07:54:47;;;;;;;3.62;1.70;;;;;;;27.56;36.66;100055.64;1717851;81;21597;-76
2022/06/08 07:57:23;;;;;;;3.08;1.80;;;;;;;27.53;35.30;100048.00;1769795;79;20967;-76
2022/06/08 07:59:51;;;;;;;3.60;1.60;;;;;;;27.42;35.30;100049.69;1769812;79;20960;-76
2022/06/08 08:02:19;;;;;;;4.55;1.62;;;;;;;27.23;35.23;100049.55;1769452;79;21015;-76
2022/06/08 08:04:46;;;;;;;2.60;1.30;;;;;;;27.07;35.85;100052.45;1773741;79;22082;-75
2022/06/08 08:07:13;;;;;;;3.17;1.65;;;;;;;27.00;36.21;100049.83;1779669;79;21102;-76
2022/06/08 08:09:40;;;;;;;3.65;1.37;;;;;;;27.08;36.23;100047.32;1799818;79;20972;-76
2022/06/08 08:12:10;;;;;;;6.37;1.42;;;;;;;27.26;37.41;100050.42;1776659;79;20996;-75
2022/06/08 08:14:37;;;;;;;3.83;1.37;;;;;;;27.55;36.59;100045.33;1770785;79;21059;-75
2022/06/08 08:17:04;;;;;;;4.87;1.30;;;;;;;27.86;35.39;100044.05;1769701;81;22233;-75
2022/06/08 08:19:32;;;;;;;3.58;1.02;;;;;;;28.11;34.38;100046.95;1769972;79;20936;-75
2022/06/08 08:22:00;;;;;;;2.05;1.00;;;;;;;28.27;33.92;100041.23;1778898;79;21121;-75
2022/06/08 08:24:27;;;;;;;2.95;1.07;;;;;;;28.42;33.65;100040.16;1780414;79;21008;-74
2022/06/08 08:26:55;;;;;;;3.22;1.30;;;;;;;28.60;32.02;100036.38;1771518;79;20911;-77
2022/06/08 08:29:22;;;;;;;3.67;1.02;;;;;;;28.76;33.20;100043.70;1773300;79;22603;-71
2022/06/08 08:31:49;;;;;;;4.20;1.40;;;;;;;28.96;32.74;100038.58;1776570;79;21000;-74
2022/06/08 08:34:16;;;;;;;4.47;1.05;;;;;;;29.16;32.39;100042.66;1777667;79;21043;-74
2022/06/08 08:36:43;;;;;;;3.08;1.00;;;;;;;29.24;31.20;100035.39;1769595;80;20960;-74
2022/06/08 08:39:11;;;;;;;4.53;1.62;;;;;;;29.31;31.28;100034.13;1769715;79;21043;-74
2022/06/08 08:44:46;;;;;;;2.50;1.10;;;;;;;29.38;30.83;100042.11;1778940;79;21019;-75
2022/06/08 08:47:41;;;;;;;3.05;1.10;;;;;;;29.41;30.44;100030.70;1772636;81;20971;-74
2022/06/08 08:50:25;;;;;;;2.65;1.02;;;;;;;29.41;30.44;100027.98;1772776;81;21067;-73
2022/06/08 08:53:23;;;;;;;1.62;1.00;;;;;;;29.44;30.20;100032.95;1773759;79;21362;-75
2022/06/08 08:56:00;;;;;;;4.92;1.10;;;;;;;29.51;28.65;100040.92;1799824;79;22391;-74
2022/06/08 08:58:29;;;;;;;2.12;1.05;;;;;;;29.41;29.52;100042.95;1798606;79;21006;-74
2022/06/08 09:01:02;;;;;;;1.15;1.00;;;;;;;29.46;29.15;100040.30;1772734;81;21047;-74
2022/06/08 09:03:39;;;;;;;1.27;1.00;;;;;;;29.48;29.80;100030.53;1799897;79;21090;-75
2022/06/08 09:06:22;;;;;;;2.98;0.90;;;;;;;29.53;29.31;100036.89;1775125;79;21083;-75
2022/06/08 09:09:00;;;;;;;2.05;1.00;;;;;;;29.61;29.33;100033.70;1773024;81;21909;-75
2022/06/08 09:11:29;;;;;;;1.17;0.80;;;;;;;29.75;30.31;100037.39;1797616;79;20992;-75
2022/06/08 09:14:01;;;;;;;2.92;0.90;;;;;;;29.92;29.21;100029.95;1791579;79;20996;-74
2022/06/08 09:16:43;;;;;;;3.85;1.00;;;;;;;29.96;28.97;100031.07;1749357;81;21040;-74
2022/06/08 09:19:26;;;;;;;1.80;0.88;;;;;;;30.03;29.23;100032.23;1772929;81;21098;-74
2022/06/08 09:22:13;;;;;;;3.22;1.00;;;;;;;30.12;29.12;100032.91;1772905;79;21807;-75
2022/06/08 09:24:51;;;;;;;3.08;1.10;;;;;;;30.15;28.59;100028.28;1787678;79;20983;-73
2022/06/08 09:27:38;;;;;;;4.87;1.10;;;;;;;30.22;28.77;100032.71;1803402;78;21028;-74
2022/06/08 09:30:20;;;;;;;2.72;0.90;;;;;;;30.20;28.35;100022.05;1802439;79;21419;-74
2022/06/08 09:32:54;;;;;;;;;;;;;;;30.19;28.75;100028.03;1794032;79;21433;-74
2022/06/08 09:35:34;;;;;;;2.47;1.00;;;;;;;30.33;28.82;100022.99;1773850;79;21431;-73
2022/06/08 09:38:06;;;;;;;3.87;1.07;;;;;;;30.49;28.88;100022.00;1772938;79;21070;-74
2022/06/08 09:41:04;;;;;;;0.85;0.85;;;;;;;30.60;28.19;100020.20;1773067;81;20999;-74
2022/06/08 09:44:09;;;;;;;1.12;1.00;;;;;;;30.61;26.76;100019.11;1773669;79;21158;-73
2022/06/08 09:53:24;;;;;;;2.35;1.02;;;;;;;29.88;26.72;100015.20;1805575;79;20948;-73
2022/06/08 09:56:18;;;;;;;1.98;0.93;;;;;;;29.85;27.11;100013.00;1780932;79;20959;-75
2022/06/08 09:58:59;;;;;;;4.28;1.10;;;;;;;29.92;26.52;100011.72;1796019;79;21138;-74
2022/06/08 10:01:35;;;;;;;2.12;0.90;;;;;;;29.93;26.44;100011.99;1793747;79;21082;-74
2022/06/08 10:04:36;;;;;;;2.08;1.10;;;;;;;29.99;27.29;100018.30;1802540;79;22583;-75
2022/06/08 10:07:36;;;;;;;2.45;0.98;;;;;;;30.15;26.95;100000.23;1774433;79;20944;-73
2022/06/08 10:10:35;;;;;;;1.17;0.90;;;;;;;30.31;26.54;100006.09;1773519;81;20973;-73
2022/06/08 10:13:18;;;;;;;1.57;1.00;;;;;;;30.42;25.70;100000.99;1775457;79;20992;-74
2022/06/08 10:15:49;;;;;;;1.72;0.80;;;;;;;30.44;26.80;100000.73;1788238;79;21338;-74
2022/06/08 10:18:32;;;;;;;3.55;1.05;;;;;;;30.68;26.98;99997.91;1800614;79;21895;-74
2022/06/08 10:21:07;;;;;;;2.58;1.10;;;;;;;30.74;26.20;99984.59;1804850;79;21039;-75
2022/06/08 10:23:59;;;;;;;1.95;0.95;;;;;;;30.73;26.85;99995.22;1774585;79;20992;-74
2022/06/08 10:26:45;;;;;;;6.40;1.30;;;;;;;30.83;27.55;99996.37;1774248;79;21509;-75
2022/06/08 10:29:36;;;;;;;1.40;1.30;;;;;;;30.92;26.86;99990.14;1773704;81;20972;-75
2022/06/08 10:32:17;;;;;;;2.55;1.27;;;;;;;31.07;27.36;99989.38;1774346;79;21823;-75
2022/06/08 10:34:52;;;;;;;2.22;1.20;;;;;;;31.06;26.91;99985.02;1770737;79;21137;-74
2022/06/08 10:37:19;;;;;;;3.12;1.45;;;;;;;31.07;27.54;99992.11;1772787;81;20928;-74
2022/06/08 10:39:47;;;;;;;1.40;1.30;;;;;;;31.16;27.11;99983.69;1773634;81;21007;-73
2022/06/08 10:45:27;;;;;;;2.12;1.10;;;;;;;31.60;26.97;99980.59;1771740;79;22475;-74
2022/06/08 10:48:15;;;;;;;2.37;1.10;;;;;;;31.76;26.96;99980.94;1764034;81;20971;-75
2022/06/08 10:50:46;;;;;;;2.52;1.20;;;;;;;31.79;25.87;99977.66;1769847;81;20963;-74
2022/06/08 10:56:32;;;;;;;2.95;1.10;;;;;;;31.77;26.20;99977.66;1776002;79;21074;-75
2022/06/08 10:59:14;;;;;;;2.23;1.20;;;;;;;32.17;26.75;99972.20;1772175;79;22534;-75
2022/06/08 11:02:11;;;;;;;3.42;1.07;;;;;;;32.17;26.75;99972.20;1770516;79;21338;-75
2022/06/08 11:04:50;;;;;;;3.20;1.30;;;;;;;32.42;25.65;99974.66;1770642;79;21063;-74
2022/06/08 11:07:19;;;;;;;1.27;1.00;;;;;;;32.70;25.27;99976.78;1769784;79;20924;-75
2022/06/08 11:09:56;;;;;;;5.22;1.40;;;;;;;32.82;24.65;99973.77;1770887;79;20995;-74
2022/06/08 11:12:39;;;;;;;1.12;1.00;;;;;;;32.58;24.82;99975.46;1769713;81;20936;-74
2022/06/08 11:15:17;;;;;;;1.82;1.30;;;;;;;32.45;24.66;99968.11;1771453;79;21039;-75
2022/06/08 11:17:58;;;;;;;2.27;1.90;;;;;;;32.48;24.52;99970.83;1747508;79;20960;-75
2022/06/08 11:20:32;;;;;;;2.30;1.47;;;;;;;32.43;25.09;99963.47;1739795;81;20960;-76
2022/06/08 11:23:34;;;;;;;3.37;1.55;;;;;;;32.46;24.58;99967.01;1792212;79;20996;-74
2022/06/08 11:26:23;;;;;;;3.12;1.50;;;;;;;32.36;25.34;99964.30;1770866;79;21953;-75
2022/06/08 11:29:01;;;;;;;3.05;1.45;;;;;;;32.37;25.19;99971.39;1769808;81;21403;-75
2022/06/08 11:31:34;;;;;;;2.85;1.20;;;;;;;32.69;24.61;99968.31;1740928;79;21079;-75
2022/06/08 11:34:34;;;;;;;2.10;1.10;;;;;;;32.80;24.59;99965.00;1770380;79;21075;-75
2022/06/08 11:37:46;;;;;;;1.65;1.02;;;;;;;32.68;24.68;99959.84;1770168;81;21035;-74
2022/06/08 11:40:29;;;;;;;2.50;1.20;;;;;;;32.62;24.33;99964.22;1769630;81;21887;-74
2022/06/08 11:43:17;;;;;;;3.27;1.10;;;;;;;32.59;25.39;99957.41;1770657;79;21027;-74
2022/06/08 11:45:51;;;;;;;2.12;1.00;;;;;;;32.88;24.49;99968.56;1789490;79;20984;-74
2022/06/08 11:48:23;;;;;;;7.10;1.30;;;;;;;33.18;24.60;99964.88;1797374;79;21515;-75
2022/06/08 11:50:59;;;;;;;2.25;1.10;;;;;;;33.36;24.08;99961.27;1769677;81;20999;-77
2022/06/08 11:53:36;;;;;;;1.75;1.05;;;;;;;33.51;23.20;99953.79;1770680;79;22581;-70
2022/06/08 11:56:28;;;;;;;3.35;1.20;;;;;;;33.61;23.97;99948.80;1769703;79;20951;-72
2022/06/08 11:58:58;;;;;;;3.80;1.30;;;;;;;33.89;23.43;99946.44;1794437;79;20987;-71
2022/06/08 12:01:38;;;;;;;1.77;1.30;;;;;;;34.05;22.74;99939.70;1771394;79;21371;-72
2022/06/08 12:04:14;;;;;;;3.55;1.07;;;;;;;34.13;23.59;99933.59;1769789;81;21027;-72
2022/06/08 12:06:43;;;;;;;2.87;1.27;;;;;;;34.38;21.97;99931.17;1770656;79;21434;-75
2022/06/08 12:09:34;;;;;;;2.62;1.25;;;;;;;34.52;22.34;99935.44;1769528;81;20984;-71
2022/06/08 12:12:11;;;;;;;5.67;0.95;;;;;;;34.40;21.81;99933.09;1770932;79;21027;-75
2022/06/08 12:14:39;;;;;;;3.47;1.10;;;;;;;34.20;22.67;99930.53;1770000;81;20980;-74
2022/06/08 12:17:20;;;;;;;1.67;1.00;;;;;;;34.27;22.47;99933.20;1773463;78;21000;-72
2022/06/08 12:19:55;;;;;;;3.47;1.00;;;;;;;34.39;22.58;99936.39;1801586;79;21821;-72
2022/06/08 12:25:25;;;;;;;1.00;0.90;;;;;;;34.91;22.48;99933.34;1837311;77;21060;-72
2022/06/08 12:28:02;;;;;;;2.92;1.02;;;;;;;34.99;21.72;99922.28;1742537;79;20985;-72